createdAt,value
2019-05-06T00:01:45.171Z,5.40
2019-05-06T00:06:51.347Z,5.40
2019-05-06T00:11:55.090Z,5.40
2019-05-06T00:17:04.465Z,5.50
2019-05-06T00:22:10.125Z,5.60
2019-05-06T00:27:27.032Z,5.50
2019-05-06T00:32:30.638Z,5.60
2019-05-06T00:37:34.886Z,5.60
2019-05-06T00:42:44.524Z,5.80
2019-05-06T00:47:48.190Z,5.50
2019-05-06T00:52:53.924Z,5.40
2019-05-06T00:58:00.373Z,5.10
2019-05-06T01:03:04.366Z,5.00
2019-05-06T01:08:16.317Z,4.90
2019-05-06T01:13:39.656Z,4.80
2019-05-06T01:18:46.250Z,5.20
2019-05-06T01:23:55.412Z,5.40
2019-05-06T01:28:59.012Z,5.40
2019-05-06T01:34:22.005Z,5.20
2019-05-06T01:39:27.248Z,5.00
2019-05-06T01:44:30.878Z,5.40
2019-05-06T01:49:37.188Z,5.40
2019-05-06T01:54:45.315Z,5.30
2019-05-06T02:00:01.290Z,5.00
2019-05-06T02:05:05.731Z,4.30
2019-05-06T02:10:09.389Z,4.40
2019-05-06T02:15:14.883Z,4.60
2019-05-06T02:20:18.488Z,4.80
2019-05-06T02:25:26.728Z,4.90
2019-05-06T02:30:37.699Z,5.00
2019-05-06T02:35:45.392Z,4.90
2019-05-06T02:40:48.211Z,4.60
2019-05-06T02:45:53.058Z,4.90
2019-05-06T02:51:03.755Z,4.80
2019-05-06T02:56:06.746Z,4.80
2019-05-06T03:01:13.376Z,4.80
2019-05-06T03:06:17.365Z,4.60
2019-05-06T03:11:24.739Z,4.50
2019-05-06T03:16:33.392Z,4.60
2019-05-06T03:21:38.643Z,4.70
2019-05-06T03:26:56.776Z,4.50
2019-05-06T03:32:07.245Z,4.30
2019-05-06T03:37:23.696Z,3.90
2019-05-06T03:42:28.056Z,3.80
2019-05-06T03:47:43.314Z,3.70
2019-05-06T03:52:47.601Z,3.90
2019-05-06T03:57:53.964Z,3.40
2019-05-06T04:02:59.410Z,3.50
2019-05-06T04:08:04.799Z,3.70
2019-05-06T04:13:13.286Z,3.80
2019-05-06T04:18:16.570Z,3.50
2019-05-06T04:23:23.454Z,3.60
2019-05-06T04:28:30.354Z,3.70
2019-05-06T04:34:10.126Z,3.60
2019-05-06T04:39:04.371Z,3.40
2019-05-06T04:44:13.568Z,3.30
2019-05-06T04:49:15.446Z,3.20
2019-05-06T04:54:26.496Z,3.30
2019-05-06T04:59:32.603Z,3.40
2019-05-06T05:04:38.202Z,3.60
2019-05-06T05:09:42.985Z,3.70
2019-05-06T05:15:06.972Z,3.80
2019-05-06T05:20:14.390Z,4.10
2019-05-06T05:25:18.414Z,4.50
2019-05-06T05:30:22.123Z,4.70
2019-05-06T05:35:25.968Z,4.80
2019-05-06T05:40:32.189Z,4.90
2019-05-06T05:45:38.533Z,5.00
2019-05-06T05:50:53.841Z,5.20
2019-05-06T05:56:17.069Z,5.50
2019-05-06T06:01:23.318Z,5.80
2019-05-06T06:06:29.541Z,6.00
2019-05-06T06:11:38.490Z,5.90
2019-05-06T06:16:49.590Z,5.60
2019-05-06T06:22:02.612Z,5.30
2019-05-06T06:27:06.350Z,5.60
2019-05-06T06:32:22.935Z,5.40
2019-05-06T06:37:43.103Z,5.60
2019-05-06T06:42:52.439Z,5.80
2019-05-06T06:47:58.902Z,5.60
2019-05-06T06:53:08.362Z,5.50
2019-05-06T06:58:22.742Z,5.80
2019-05-06T07:03:28.678Z,5.50
2019-05-06T07:08:42.641Z,6.00
2019-05-06T07:13:57.635Z,5.90
2019-05-06T07:19:05.879Z,6.60
2019-05-06T07:24:13.031Z,6.60
2019-05-06T07:29:24.259Z,6.70
2019-05-06T07:34:27.568Z,7.00
2019-05-06T07:39:34.212Z,7.10
2019-05-06T07:44:42.325Z,7.20
2019-05-06T07:49:46.116Z,7.10
2019-05-06T07:54:53.178Z,7.00
2019-05-06T07:59:56.742Z,6.70
2019-05-06T08:05:02.737Z,7.30
2019-05-06T08:10:14.455Z,7.80
2019-05-06T08:15:18.668Z,8.10
2019-05-06T08:20:24.163Z,7.80
2019-05-06T08:25:29.411Z,8.00
2019-05-06T08:30:39.065Z,8.00
2019-05-06T08:35:45.930Z,7.80
2019-05-06T08:40:57.834Z,8.10
2019-05-06T08:46:04.755Z,8.70
2019-05-06T08:51:10.011Z,9.30
2019-05-06T08:56:16.472Z,9.40
2019-05-06T09:01:22.853Z,9.50
2019-05-06T09:06:30.479Z,9.30
2019-05-06T09:11:34.496Z,8.80
2019-05-06T09:16:38.562Z,8.40
2019-05-06T09:21:45.947Z,8.60
2019-05-06T09:26:58.893Z,8.50
2019-05-06T09:32:07.168Z,8.80
2019-05-06T09:37:14.879Z,8.50
2019-05-06T09:42:22.828Z,9.40
2019-05-06T09:47:39.620Z,9.70
2019-05-06T09:52:43.245Z,10.10
2019-05-06T09:58:04.935Z,10.00
2019-05-06T10:03:11.374Z,9.70
2019-05-06T10:08:19.775Z,9.90
2019-05-06T10:13:23.381Z,10.10
2019-05-06T10:18:28.760Z,9.60
2019-05-06T10:23:32.823Z,8.90
2019-05-06T10:28:39.392Z,9.50
2019-05-06T10:34:03.066Z,9.90
2019-05-06T10:39:10.062Z,10.50
2019-05-06T10:44:33.213Z,9.90
2019-05-06T10:49:46.651Z,9.80
2019-05-06T10:54:50.988Z,9.80
2019-05-06T11:00:00.556Z,9.90
2019-05-06T11:05:06.174Z,9.90
2019-05-06T11:10:23.911Z,10.10
2019-05-06T11:15:23.256Z,9.70
2019-05-06T11:20:28.227Z,9.80
2019-05-06T11:25:33.477Z,10.00
2019-05-06T11:30:38.721Z,9.90
2019-05-06T11:36:02.014Z,9.30
2019-05-06T11:41:07.216Z,9.20
2019-05-06T11:46:16.461Z,9.20
2019-05-06T11:51:24.283Z,9.30
2019-05-06T11:56:47.557Z,9.70
2019-05-06T12:01:53.159Z,9.90
2019-05-06T12:07:11.040Z,10.20
2019-05-06T12:12:06.452Z,9.80
2019-05-06T12:17:12.936Z,8.80
2019-05-06T12:22:21.977Z,9.00
2019-05-06T12:27:48.461Z,9.40
2019-05-06T12:33:05.421Z,9.20
2019-05-06T12:38:27.488Z,9.40
2019-05-06T12:43:29.526Z,9.70
2019-05-06T12:48:44.134Z,10.10
2019-05-06T12:53:52.720Z,9.80
2019-05-06T12:58:59.024Z,9.50
2019-05-06T13:04:04.458Z,9.30
2019-05-06T13:09:12.707Z,9.40
2019-05-06T13:14:25.948Z,9.70
2019-05-06T13:19:32.024Z,10.20
2019-05-06T13:24:37.558Z,10.10
2019-05-06T13:29:43.982Z,10.20
2019-05-06T13:34:52.493Z,10.70
2019-05-06T13:40:03.344Z,10.60
2019-05-06T13:45:07.143Z,10.40
2019-05-06T13:50:16.539Z,10.70
2019-05-06T13:55:25.729Z,10.80
2019-05-06T14:00:30.010Z,10.50
2019-05-06T14:05:35.327Z,11.00
2019-05-06T14:10:42.456Z,10.50
2019-05-06T14:15:48.838Z,10.50
2019-05-06T14:20:54.918Z,10.80
2019-05-06T14:26:12.664Z,10.80
2019-05-06T14:31:25.306Z,11.50
2019-05-06T14:36:36.508Z,11.20
2019-05-06T14:41:32.817Z,10.70
2019-05-06T14:47:00.373Z,10.80
2019-05-06T14:52:12.782Z,11.00
2019-05-06T14:57:25.237Z,10.60
2019-05-06T15:02:29.440Z,10.40
2019-05-06T15:07:33.137Z,10.20
2019-05-06T15:12:42.835Z,10.70
2019-05-06T15:18:02.866Z,10.70
2019-05-06T15:23:06.562Z,11.20
2019-05-06T15:28:16.394Z,11.00
2019-05-06T15:33:22.430Z,10.90
2019-05-06T15:38:27.874Z,10.90
2019-05-06T15:43:33.362Z,10.30
2019-05-06T15:48:37.003Z,10.30
2019-05-06T15:53:43.795Z,10.20
2019-05-06T15:58:47.444Z,10.50
2019-05-06T16:03:53.347Z,10.20
2019-05-06T16:08:57.966Z,9.80
2019-05-06T16:14:05.996Z,10.10
2019-05-06T16:19:12.796Z,10.20
2019-05-06T16:24:18.792Z,9.90
2019-05-06T16:29:37.507Z,10.00
2019-05-06T16:34:44.014Z,9.70
2019-05-06T16:39:47.756Z,10.00
2019-05-06T16:44:54.423Z,10.20
2019-05-06T16:50:01.218Z,9.80
2019-05-06T16:55:07.189Z,9.60
2019-05-06T17:00:15.768Z,9.80
2019-05-06T17:05:39.234Z,10.30
2019-05-06T17:10:45.784Z,10.00
2019-05-06T17:15:50.076Z,9.70
2019-05-06T17:20:56.269Z,10.30
2019-05-06T17:26:01.653Z,10.10
2019-05-06T17:31:22.406Z,10.00
2019-05-06T17:36:35.291Z,9.80
2019-05-06T17:41:45.925Z,9.80
2019-05-06T17:46:46.557Z,9.70
2019-05-06T17:52:09.836Z,9.30
2019-05-06T17:57:13.452Z,9.30
2019-05-06T18:02:19.306Z,9.30
2019-05-06T18:07:25.963Z,9.50
2019-05-06T18:12:33.178Z,9.50
2019-05-06T18:17:39.343Z,9.50
2019-05-06T18:22:42.949Z,9.40
2019-05-06T18:27:46.638Z,9.50
2019-05-06T18:32:51.985Z,9.60
2019-05-06T18:37:55.575Z,9.40
2019-05-06T18:42:59.109Z,9.60
2019-05-06T18:48:02.928Z,9.40
2019-05-06T18:53:06.717Z,9.50
2019-05-06T18:58:12.711Z,9.90
2019-05-06T19:03:15.784Z,9.50
2019-05-06T19:08:21.965Z,9.30
2019-05-06T19:13:27.218Z,9.50
2019-05-06T19:18:38.698Z,9.60
2019-05-06T19:23:44.880Z,9.90
2019-05-06T19:28:48.480Z,9.80
2019-05-06T19:33:52.590Z,9.90
2019-05-06T19:38:56.479Z,10.30
2019-05-06T19:44:02.165Z,10.30
2019-05-06T19:49:05.810Z,10.30
2019-05-06T19:54:09.426Z,10.40
2019-05-06T19:59:13.120Z,10.40
2019-05-06T20:04:17.160Z,10.30
2019-05-06T20:09:38.982Z,10.00
2019-05-06T20:14:42.663Z,9.70
2019-05-06T20:19:46.276Z,9.80
2019-05-06T20:24:52.063Z,9.50
2019-05-06T20:29:55.777Z,9.60
2019-05-06T20:34:59.454Z,9.70
2019-05-06T20:40:06.630Z,9.60
2019-05-06T20:45:12.833Z,9.50
2019-05-06T20:50:16.803Z,9.40
2019-05-06T20:55:22.689Z,9.30
2019-05-06T21:00:27.644Z,9.20
2019-05-06T21:05:36.333Z,8.90
2019-05-06T21:10:49.490Z,8.80
2019-05-06T21:15:51.809Z,8.80
2019-05-06T21:20:58.664Z,8.80
2019-05-06T21:26:03.902Z,8.70
2019-05-06T21:31:20.798Z,8.20
2019-05-06T21:36:24.481Z,8.10
2019-05-06T21:41:28.091Z,8.10
2019-05-06T21:46:31.970Z,8.30
2019-05-06T21:51:36.190Z,8.30
2019-05-06T21:56:39.855Z,8.20
2019-05-06T22:01:43.587Z,8.00
2019-05-06T22:06:52.242Z,8.10
2019-05-06T22:11:55.299Z,8.10
2019-05-06T22:17:03.816Z,8.10
2019-05-06T22:22:20.563Z,8.00
2019-05-06T22:27:27.606Z,7.80
2019-05-06T22:32:33.137Z,7.50
2019-05-06T22:37:39.383Z,7.30
2019-05-06T22:42:43.227Z,7.30
2019-05-06T22:47:50.600Z,7.40
2019-05-06T22:52:55.223Z,7.20
2019-05-06T22:57:58.790Z,7.20
2019-05-06T23:03:06.943Z,7.20
2019-05-06T23:08:13.354Z,7.10
2019-05-06T23:13:23.185Z,7.20
2019-05-06T23:18:27.123Z,7.20
2019-05-06T23:23:32.763Z,7.00
2019-05-06T23:28:36.172Z,6.90
2019-05-06T23:33:45.850Z,6.70
2019-05-06T23:39:28.650Z,6.60
2019-05-06T23:45:08.669Z,6.50
2019-05-06T23:50:51.878Z,6.30
2019-05-06T23:56:32.643Z,5.90
